sensor_id;sensor_type;location;lat;lon;timestamp;pressure;altitude;pressure_sealevel;temperature
18704;BMP180;9481;48.796;9.210;2022-07-09T00:00:51;97732.00;;;23.00
18704;BMP180;9481;48.796;9.210;2022-07-09T00:03:17;97731.00;;;23.00
18704;BMP180;9481;48.796;9.210;2022-07-09T00:05:43;97726.00;;;23.00
18704;BMP180;9481;48.796;9.210;2022-07-09T00:08:08;97732.00;;;23.00
18704;BMP180;9481;48.796;9.210;2022-07-09T00:10:34;97725.00;;;23.00
18704;BMP180;9481;48.796;9.210;2022-07-09T00:13:00;97724.00;;;22.90
18704;BMP180;9481;48.796;9.210;2022-07-09T00:15:26;97717.00;;;22.90
18704;BMP180;9481;48.796;9.210;2022-07-09T00:17:51;97725.00;;;22.90
18704;BMP180;9481;48.796;9.210;2022-07-09T00:20:17;97713.00;;;22.90
18704;BMP180;9481;48.796;9.210;2022-07-09T00:22:43;97718.00;;;22.80
18704;BMP180;9481;48.796;9.210;2022-07-09T00:25:09;97715.00;;;22.80
18704;BMP180;9481;48.796;9.210;2022-07-09T00:27:35;97717.00;;;22.80
18704;BMP180;9481;48.796;9.210;2022-07-09T00:30:01;97712.00;;;22.80
18704;BMP180;9481;48.796;9.210;2022-07-09T00:32:27;97715.00;;;22.80
18704;BMP180;9481;48.796;9.210;2022-07-09T00:34:52;97708.00;;;22.80
18704;BMP180;9481;48.796;9.210;2022-07-09T00:37:18;97704.00;;;22.70
18704;BMP180;9481;48.796;9.210;2022-07-09T00:39:44;97710.00;;;22.70
18704;BMP180;9481;48.796;9.210;2022-07-09T00:42:11;97702.00;;;22.60
18704;BMP180;9481;48.796;9.210;2022-07-09T00:44:38;97698.00;;;22.60
18704;BMP180;9481;48.796;9.210;2022-07-09T00:47:06;97699.00;;;22.60
18704;BMP180;9481;48.796;9.210;2022-07-09T00:49:38;97694.00;;;22.60
18704;BMP180;9481;48.796;9.210;2022-07-09T00:52:06;97691.00;;;22.60
18704;BMP180;9481;48.796;9.210;2022-07-09T00:54:34;97694.00;;;22.60
18704;BMP180;9481;48.796;9.210;2022-07-09T00:57:00;97685.00;;;22.60
18704;BMP180;9481;48.796;9.210;2022-07-09T00:59:26;97678.00;;;22.50
18704;BMP180;9481;48.796;9.210;2022-07-09T01:01:52;97677.00;;;22.50
18704;BMP180;9481;48.796;9.210;2022-07-09T01:04:18;97674.00;;;22.50
18704;BMP180;9481;48.796;9.210;2022-07-09T01:06:44;97682.00;;;22.50
18704;BMP180;9481;48.796;9.210;2022-07-09T01:09:10;97674.00;;;22.40
18704;BMP180;9481;48.796;9.210;2022-07-09T01:11:36;97673.00;;;22.40
18704;BMP180;9481;48.796;9.210;2022-07-09T01:14:03;97666.00;;;22.30
18704;BMP180;9481;48.796;9.210;2022-07-09T01:16:34;97668.00;;;22.30
18704;BMP180;9481;48.796;9.210;2022-07-09T01:19:00;97672.00;;;22.30
18704;BMP180;9481;48.796;9.210;2022-07-09T01:21:26;97662.00;;;22.20
18704;BMP180;9481;48.796;9.210;2022-07-09T01:23:53;97661.00;;;22.20
18704;BMP180;9481;48.796;9.210;2022-07-09T01:26:18;97667.00;;;22.20
18704;BMP180;9481;48.796;9.210;2022-07-09T01:28:47;97667.00;;;22.20
18704;BMP180;9481;48.796;9.210;2022-07-09T01:31:14;97656.00;;;22.10
18704;BMP180;9481;48.796;9.210;2022-07-09T01:33:40;97654.00;;;22.10
18704;BMP180;9481;48.796;9.210;2022-07-09T01:36:07;97660.00;;;22.10
18704;BMP180;9481;48.796;9.210;2022-07-09T01:38:33;97660.00;;;22.10
18704;BMP180;9481;48.796;9.210;2022-07-09T01:40:59;97653.00;;;22.00
18704;BMP180;9481;48.796;9.210;2022-07-09T01:43:24;97654.00;;;22.00
18704;BMP180;9481;48.796;9.210;2022-07-09T01:45:51;97651.00;;;22.00
18704;BMP180;9481;48.796;9.210;2022-07-09T01:48:17;97656.00;;;22.00
18704;BMP180;9481;48.796;9.210;2022-07-09T01:50:43;97654.00;;;22.00
18704;BMP180;9481;48.796;9.210;2022-07-09T01:53:08;97640.00;;;21.90
18704;BMP180;9481;48.796;9.210;2022-07-09T01:55:34;97651.00;;;21.90
18704;BMP180;9481;48.796;9.210;2022-07-09T01:58:00;97644.00;;;21.90
18704;BMP180;9481;48.796;9.210;2022-07-09T02:00:26;97641.00;;;21.90
18704;BMP180;9481;48.796;9.210;2022-07-09T02:02:54;97632.00;;;21.90
18704;BMP180;9481;48.796;9.210;2022-07-09T02:05:21;97635.00;;;21.80
18704;BMP180;9481;48.796;9.210;2022-07-09T02:07:46;97631.00;;;21.80
18704;BMP180;9481;48.796;9.210;2022-07-09T02:10:13;97627.00;;;21.80
18704;BMP180;9481;48.796;9.210;2022-07-09T02:12:39;97637.00;;;21.80
18704;BMP180;9481;48.796;9.210;2022-07-09T02:15:07;97626.00;;;21.80
18704;BMP180;9481;48.796;9.210;2022-07-09T02:17:34;97634.00;;;21.70
18704;BMP180;9481;48.796;9.210;2022-07-09T02:20:00;97633.00;;;21.70
18704;BMP180;9481;48.796;9.210;2022-07-09T02:22:26;97629.00;;;21.70
18704;BMP180;9481;48.796;9.210;2022-07-09T02:24:51;97628.00;;;21.70
18704;BMP180;9481;48.796;9.210;2022-07-09T02:27:17;97629.00;;;21.60
18704;BMP180;9481;48.796;9.210;2022-07-09T02:29:43;97624.00;;;21.60
18704;BMP180;9481;48.796;9.210;2022-07-09T02:32:09;97630.00;;;21.60
18704;BMP180;9481;48.796;9.210;2022-07-09T02:34:36;97630.00;;;21.60
18704;BMP180;9481;48.796;9.210;2022-07-09T02:37:04;97628.00;;;21.60
18704;BMP180;9481;48.796;9.210;2022-07-09T02:39:30;97623.00;;;21.50
18704;BMP180;9481;48.796;9.210;2022-07-09T02:41:55;97624.00;;;21.50
18704;BMP180;9481;48.796;9.210;2022-07-09T02:44:21;97625.00;;;21.50
18704;BMP180;9481;48.796;9.210;2022-07-09T02:46:47;97626.00;;;21.50
18704;BMP180;9481;48.796;9.210;2022-07-09T02:49:12;97628.00;;;21.40
18704;BMP180;9481;48.796;9.210;2022-07-09T02:51:38;97629.00;;;21.40
18704;BMP180;9481;48.796;9.210;2022-07-09T02:54:04;97619.00;;;21.40
18704;BMP180;9481;48.796;9.210;2022-07-09T02:56:30;97618.00;;;21.40
18704;BMP180;9481;48.796;9.210;2022-07-09T02:58:56;97625.00;;;21.40
18704;BMP180;9481;48.796;9.210;2022-07-09T03:01:22;97629.00;;;21.40
18704;BMP180;9481;48.796;9.210;2022-07-09T03:03:47;97627.00;;;21.30
18704;BMP180;9481;48.796;9.210;2022-07-09T03:06:13;97618.00;;;21.30
18704;BMP180;9481;48.796;9.210;2022-07-09T03:08:39;97617.00;;;21.30
18704;BMP180;9481;48.796;9.210;2022-07-09T03:11:05;97618.00;;;21.30
18704;BMP180;9481;48.796;9.210;2022-07-09T03:13:36;97623.00;;;21.30
18704;BMP180;9481;48.796;9.210;2022-07-09T03:16:03;97624.00;;;21.30
18704;BMP180;9481;48.796;9.210;2022-07-09T03:18:29;97627.00;;;21.30
18704;BMP180;9481;48.796;9.210;2022-07-09T03:20:55;97631.00;;;21.20
18704;BMP180;9481;48.796;9.210;2022-07-09T03:23:21;97625.00;;;21.20
18704;BMP180;9481;48.796;9.210;2022-07-09T03:25:46;97634.00;;;21.20
18704;BMP180;9481;48.796;9.210;2022-07-09T03:28:12;97627.00;;;21.20
18704;BMP180;9481;48.796;9.210;2022-07-09T03:30:38;97633.00;;;21.20
18704;BMP180;9481;48.796;9.210;2022-07-09T03:33:04;97630.00;;;21.20
18704;BMP180;9481;48.796;9.210;2022-07-09T03:35:29;97630.00;;;21.20
18704;BMP180;9481;48.796;9.210;2022-07-09T03:37:55;97634.00;;;21.10
18704;BMP180;9481;48.796;9.210;2022-07-09T03:40:21;97638.00;;;21.10
18704;BMP180;9481;48.796;9.210;2022-07-09T03:42:47;97638.00;;;21.10
18704;BMP180;9481;48.796;9.210;2022-07-09T03:45:12;97637.00;;;21.10
18704;BMP180;9481;48.796;9.210;2022-07-09T03:47:38;97633.00;;;21.00
18704;BMP180;9481;48.796;9.210;2022-07-09T03:50:05;97632.00;;;21.00
18704;BMP180;9481;48.796;9.210;2022-07-09T03:52:30;97639.00;;;21.00
18704;BMP180;9481;48.796;9.210;2022-07-09T03:54:56;97631.00;;;21.00
18704;BMP180;9481;48.796;9.210;2022-07-09T03:57:22;97636.00;;;20.90
18704;BMP180;9481;48.796;9.210;2022-07-09T03:59:47;97633.00;;;21.00
18704;BMP180;9481;48.796;9.210;2022-07-09T04:02:13;97636.00;;;20.90
18704;BMP180;9481;48.796;9.210;2022-07-09T04:04:40;97632.00;;;20.90
18704;BMP180;9481;48.796;9.210;2022-07-09T04:07:06;97636.00;;;20.90
18704;BMP180;9481;48.796;9.210;2022-07-09T04:09:32;97636.00;;;20.90
18704;BMP180;9481;48.796;9.210;2022-07-09T04:11:57;97639.00;;;20.90
18704;BMP180;9481;48.796;9.210;2022-07-09T04:14:23;97641.00;;;20.90
18704;BMP180;9481;48.796;9.210;2022-07-09T04:16:49;97642.00;;;20.90
18704;BMP180;9481;48.796;9.210;2022-07-09T04:19:14;97641.00;;;20.90
18704;BMP180;9481;48.796;9.210;2022-07-09T04:21:40;97638.00;;;20.90
18704;BMP180;9481;48.796;9.210;2022-07-09T04:24:06;97648.00;;;20.90
18704;BMP180;9481;48.796;9.210;2022-07-09T04:26:31;97649.00;;;20.90
18704;BMP180;9481;48.796;9.210;2022-07-09T04:28:57;97644.00;;;20.90
18704;BMP180;9481;48.796;9.210;2022-07-09T04:31:23;97650.00;;;20.90
18704;BMP180;9481;48.796;9.210;2022-07-09T04:33:48;97653.00;;;20.90
18704;BMP180;9481;48.796;9.210;2022-07-09T04:36:14;97652.00;;;20.90
18704;BMP180;9481;48.796;9.210;2022-07-09T04:38:40;97650.00;;;20.90
18704;BMP180;9481;48.796;9.210;2022-07-09T04:41:06;97654.00;;;20.90
18704;BMP180;9481;48.796;9.210;2022-07-09T04:43:32;97656.00;;;20.90
18704;BMP180;9481;48.796;9.210;2022-07-09T04:45:58;97653.00;;;20.90
18704;BMP180;9481;48.796;9.210;2022-07-09T04:48:25;97653.00;;;20.90
18704;BMP180;9481;48.796;9.210;2022-07-09T04:50:51;97650.00;;;20.90
18704;BMP180;9481;48.796;9.210;2022-07-09T04:53:16;97649.00;;;21.00
18704;BMP180;9481;48.796;9.210;2022-07-09T04:55:42;97655.00;;;21.00
18704;BMP180;9481;48.796;9.210;2022-07-09T04:58:09;97653.00;;;21.00
18704;BMP180;9481;48.796;9.210;2022-07-09T05:00:35;97639.00;;;21.00
18704;BMP180;9481;48.796;9.210;2022-07-09T05:03:01;97654.00;;;21.00
18704;BMP180;9481;48.796;9.210;2022-07-09T05:05:27;97651.00;;;21.10
18704;BMP180;9481;48.796;9.210;2022-07-09T05:07:53;97650.00;;;21.10
18704;BMP180;9481;48.796;9.210;2022-07-09T05:10:19;97654.00;;;21.10
18704;BMP180;9481;48.796;9.210;2022-07-09T05:12:46;97649.00;;;21.10
18704;BMP180;9481;48.796;9.210;2022-07-09T05:15:13;97642.00;;;21.10
18704;BMP180;9481;48.796;9.210;2022-07-09T05:17:40;97646.00;;;21.20
18704;BMP180;9481;48.796;9.210;2022-07-09T05:20:08;97649.00;;;21.20
18704;BMP180;9481;48.796;9.210;2022-07-09T05:22:36;97651.00;;;21.20
18704;BMP180;9481;48.796;9.210;2022-07-09T05:25:03;97646.00;;;21.30
18704;BMP180;9481;48.796;9.210;2022-07-09T05:27:29;97650.00;;;21.30
18704;BMP180;9481;48.796;9.210;2022-07-09T05:29:55;97643.00;;;21.30
18704;BMP180;9481;48.796;9.210;2022-07-09T05:32:21;97646.00;;;21.40
18704;BMP180;9481;48.796;9.210;2022-07-09T05:34:46;97648.00;;;21.50
18704;BMP180;9481;48.796;9.210;2022-07-09T05:37:12;97647.00;;;21.50
18704;BMP180;9481;48.796;9.210;2022-07-09T05:39:38;97647.00;;;21.60
18704;BMP180;9481;48.796;9.210;2022-07-09T05:42:04;97653.00;;;21.60
18704;BMP180;9481;48.796;9.210;2022-07-09T05:44:30;97652.00;;;21.70
18704;BMP180;9481;48.796;9.210;2022-07-09T05:46:56;97646.00;;;21.70
18704;BMP180;9481;48.796;9.210;2022-07-09T05:49:22;97651.00;;;21.80
18704;BMP180;9481;48.796;9.210;2022-07-09T05:51:48;97645.00;;;21.90
18704;BMP180;9481;48.796;9.210;2022-07-09T05:54:14;97655.00;;;21.90
18704;BMP180;9481;48.796;9.210;2022-07-09T05:56:40;97659.00;;;22.00
18704;BMP180;9481;48.796;9.210;2022-07-09T05:59:07;97662.00;;;22.10
18704;BMP180;9481;48.796;9.210;2022-07-09T06:01:33;97658.00;;;22.20
18704;BMP180;9481;48.796;9.210;2022-07-09T06:04:04;97652.00;;;22.20
18704;BMP180;9481;48.796;9.210;2022-07-09T06:06:30;97662.00;;;22.30
18704;BMP180;9481;48.796;9.210;2022-07-09T06:08:56;97658.00;;;22.30
18704;BMP180;9481;48.796;9.210;2022-07-09T06:11:21;97661.00;;;22.40
18704;BMP180;9481;48.796;9.210;2022-07-09T06:13:47;97654.00;;;22.40
18704;BMP180;9481;48.796;9.210;2022-07-09T06:16:13;97648.00;;;22.50
18704;BMP180;9481;48.796;9.210;2022-07-09T06:18:39;97651.00;;;22.60
18704;BMP180;9481;48.796;9.210;2022-07-09T06:21:04;97652.00;;;22.60
18704;BMP180;9481;48.796;9.210;2022-07-09T06:23:30;97653.00;;;22.70
18704;BMP180;9481;48.796;9.210;2022-07-09T06:25:56;97651.00;;;22.70
18704;BMP180;9481;48.796;9.210;2022-07-09T06:28:21;97654.00;;;22.80
18704;BMP180;9481;48.796;9.210;2022-07-09T06:30:47;97651.00;;;22.80
18704;BMP180;9481;48.796;9.210;2022-07-09T06:33:13;97655.00;;;22.80
18704;BMP180;9481;48.796;9.210;2022-07-09T06:35:39;97657.00;;;22.80
18704;BMP180;9481;48.796;9.210;2022-07-09T06:38:05;97653.00;;;22.90
18704;BMP180;9481;48.796;9.210;2022-07-09T06:40:31;97659.00;;;22.90
18704;BMP180;9481;48.796;9.210;2022-07-09T06:42:56;97652.00;;;22.90
18704;BMP180;9481;48.796;9.210;2022-07-09T06:45:22;97652.00;;;22.90
18704;BMP180;9481;48.796;9.210;2022-07-09T06:47:48;97651.00;;;22.90
18704;BMP180;9481;48.796;9.210;2022-07-09T06:50:14;97641.00;;;23.00
18704;BMP180;9481;48.796;9.210;2022-07-09T06:52:40;97647.00;;;23.00
18704;BMP180;9481;48.796;9.210;2022-07-09T06:55:07;97646.00;;;23.00
18704;BMP180;9481;48.796;9.210;2022-07-09T06:57:32;97650.00;;;23.00
18704;BMP180;9481;48.796;9.210;2022-07-09T06:59:58;97653.00;;;23.00
18704;BMP180;9481;48.796;9.210;2022-07-09T07:02:24;97647.00;;;23.10
18704;BMP180;9481;48.796;9.210;2022-07-09T07:04:49;97646.00;;;23.10
18704;BMP180;9481;48.796;9.210;2022-07-09T07:07:15;97650.00;;;23.10
18704;BMP180;9481;48.796;9.210;2022-07-09T07:09:41;97647.00;;;23.20
18704;BMP180;9481;48.796;9.210;2022-07-09T07:12:07;97649.00;;;23.30
18704;BMP180;9481;48.796;9.210;2022-07-09T07:14:33;97643.00;;;23.40
18704;BMP180;9481;48.796;9.210;2022-07-09T07:16:59;97649.00;;;23.50
18704;BMP180;9481;48.796;9.210;2022-07-09T07:19:24;97648.00;;;23.60
18704;BMP180;9481;48.796;9.210;2022-07-09T07:21:52;97648.00;;;23.70
18704;BMP180;9481;48.796;9.210;2022-07-09T07:24:18;97644.00;;;23.80
18704;BMP180;9481;48.796;9.210;2022-07-09T07:26:44;97644.00;;;23.90
18704;BMP180;9481;48.796;9.210;2022-07-09T07:29:09;97645.00;;;24.00
18704;BMP180;9481;48.796;9.210;2022-07-09T07:31:35;97641.00;;;24.20
18704;BMP180;9481;48.796;9.210;2022-07-09T07:34:00;97648.00;;;24.30
18704;BMP180;9481;48.796;9.210;2022-07-09T07:36:26;97639.00;;;24.40
18704;BMP180;9481;48.796;9.210;2022-07-09T07:38:53;97638.00;;;24.50
18704;BMP180;9481;48.796;9.210;2022-07-09T07:41:19;97642.00;;;24.60
18704;BMP180;9481;48.796;9.210;2022-07-09T07:43:46;97650.00;;;24.70
18704;BMP180;9481;48.796;9.210;2022-07-09T07:46:12;97646.00;;;24.80
18704;BMP180;9481;48.796;9.210;2022-07-09T07:48:39;97633.00;;;24.80
18704;BMP180;9481;48.796;9.210;2022-07-09T07:51:07;97643.00;;;24.80
18704;BMP180;9481;48.796;9.210;2022-07-09T07:53:34;97644.00;;;24.90
18704;BMP180;9481;48.796;9.210;2022-07-09T07:56:04;97647.00;;;25.00
18704;BMP180;9481;48.796;9.210;2022-07-09T07:58:30;97655.00;;;25.10
18704;BMP180;9481;48.796;9.210;2022-07-09T08:00:56;97645.00;;;25.20
18704;BMP180;9481;48.796;9.210;2022-07-09T08:03:22;97647.00;;;25.30
18704;BMP180;9481;48.796;9.210;2022-07-09T08:05:48;97643.00;;;25.30
18704;BMP180;9481;48.796;9.210;2022-07-09T08:08:13;97649.00;;;25.40
18704;BMP180;9481;48.796;9.210;2022-07-09T08:10:39;97646.00;;;25.50
18704;BMP180;9481;48.796;9.210;2022-07-09T08:13:05;97642.00;;;25.60
18704;BMP180;9481;48.796;9.210;2022-07-09T08:15:31;97642.00;;;25.60
18704;BMP180;9481;48.796;9.210;2022-07-09T08:17:56;97643.00;;;25.70
18704;BMP180;9481;48.796;9.210;2022-07-09T08:20:22;97644.00;;;25.80
18704;BMP180;9481;48.796;9.210;2022-07-09T08:22:48;97644.00;;;25.90
18704;BMP180;9481;48.796;9.210;2022-07-09T08:25:13;97642.00;;;25.90
18704;BMP180;9481;48.796;9.210;2022-07-09T08:27:40;97641.00;;;26.00
18704;BMP180;9481;48.796;9.210;2022-07-09T08:30:06;97642.00;;;26.10
18704;BMP180;9481;48.796;9.210;2022-07-09T08:32:33;97632.00;;;26.10
18704;BMP180;9481;48.796;9.210;2022-07-09T08:34:59;97632.00;;;26.20
18704;BMP180;9481;48.796;9.210;2022-07-09T08:37:25;97630.00;;;26.20
18704;BMP180;9481;48.796;9.210;2022-07-09T08:39:50;97629.00;;;26.30
18704;BMP180;9481;48.796;9.210;2022-07-09T08:42:17;97633.00;;;26.30
18704;BMP180;9481;48.796;9.210;2022-07-09T08:44:46;97625.00;;;26.40
18704;BMP180;9481;48.796;9.210;2022-07-09T08:47:14;97626.00;;;26.40
18704;BMP180;9481;48.796;9.210;2022-07-09T08:49:41;97627.00;;;26.50
18704;BMP180;9481;48.796;9.210;2022-07-09T08:52:08;97623.00;;;26.50
18704;BMP180;9481;48.796;9.210;2022-07-09T08:54:35;97617.00;;;26.60
18704;BMP180;9481;48.796;9.210;2022-07-09T08:57:04;97622.00;;;26.60
18704;BMP180;9481;48.796;9.210;2022-07-09T08:59:32;97617.00;;;26.70
18704;BMP180;9481;48.796;9.210;2022-07-09T09:02:03;97617.00;;;26.70
18704;BMP180;9481;48.796;9.210;2022-07-09T09:04:29;97610.00;;;26.90
18704;BMP180;9481;48.796;9.210;2022-07-09T09:06:55;97608.00;;;26.90
18704;BMP180;9481;48.796;9.210;2022-07-09T09:09:21;97606.00;;;27.00
18704;BMP180;9481;48.796;9.210;2022-07-09T09:11:48;97607.00;;;27.00
18704;BMP180;9481;48.796;9.210;2022-07-09T09:14:22;97599.00;;;27.10
18704;BMP180;9481;48.796;9.210;2022-07-09T09:16:48;97597.00;;;27.20
18704;BMP180;9481;48.796;9.210;2022-07-09T09:19:14;97599.00;;;27.30
18704;BMP180;9481;48.796;9.210;2022-07-09T09:21:40;97596.00;;;27.40
18704;BMP180;9481;48.796;9.210;2022-07-09T09:24:06;97590.00;;;27.50
18704;BMP180;9481;48.796;9.210;2022-07-09T09:26:32;97590.00;;;27.60
18704;BMP180;9481;48.796;9.210;2022-07-09T09:29:03;97588.00;;;27.60
18704;BMP180;9481;48.796;9.210;2022-07-09T09:31:35;97591.00;;;27.70
18704;BMP180;9481;48.796;9.210;2022-07-09T09:34:14;97586.00;;;27.80
18704;BMP180;9481;48.796;9.210;2022-07-09T09:36:43;97589.00;;;27.90
18704;BMP180;9481;48.796;9.210;2022-07-09T09:41:39;97580.00;;;28.00
18704;BMP180;9481;48.796;9.210;2022-07-09T09:44:08;97572.00;;;28.10
18704;BMP180;9481;48.796;9.210;2022-07-09T09:46:37;97571.00;;;28.10
18704;BMP180;9481;48.796;9.210;2022-07-09T09:49:08;97576.00;;;28.20
18704;BMP180;9481;48.796;9.210;2022-07-09T09:51:38;97575.00;;;28.20
18704;BMP180;9481;48.796;9.210;2022-07-09T09:54:08;97576.00;;;28.30
18704;BMP180;9481;48.796;9.210;2022-07-09T09:56:35;97577.00;;;28.30
18704;BMP180;9481;48.796;9.210;2022-07-09T09:59:01;97573.00;;;28.40
18704;BMP180;9481;48.796;9.210;2022-07-09T10:01:28;97563.00;;;28.40
18704;BMP180;9481;48.796;9.210;2022-07-09T10:03:56;97569.00;;;28.50
18704;BMP180;9481;48.796;9.210;2022-07-09T10:06:22;97567.00;;;28.60
18704;BMP180;9481;48.796;9.210;2022-07-09T10:08:48;97562.00;;;28.70
18704;BMP180;9481;48.796;9.210;2022-07-09T10:11:14;97566.00;;;28.80
18704;BMP180;9481;48.796;9.210;2022-07-09T10:13:55;97557.00;;;28.80
18704;BMP180;9481;48.796;9.210;2022-07-09T10:16:36;97556.00;;;28.80
18704;BMP180;9481;48.796;9.210;2022-07-09T10:19:02;97558.00;;;28.90
18704;BMP180;9481;48.796;9.210;2022-07-09T10:21:40;97553.00;;;28.90
18704;BMP180;9481;48.796;9.210;2022-07-09T10:24:09;97554.00;;;29.00
18704;BMP180;9481;48.796;9.210;2022-07-09T10:26:46;97551.00;;;29.10
18704;BMP180;9481;48.796;9.210;2022-07-09T10:29:26;97560.00;;;29.00
18704;BMP180;9481;48.796;9.210;2022-07-09T10:31:56;97552.00;;;28.90
18704;BMP180;9481;48.796;9.210;2022-07-09T10:34:51;97550.00;;;28.80
18704;BMP180;9481;48.796;9.210;2022-07-09T10:40:03;97545.00;;;28.80
18704;BMP180;9481;48.796;9.210;2022-07-09T10:42:29;97545.00;;;28.80
18704;BMP180;9481;48.796;9.210;2022-07-09T10:44:55;97542.00;;;28.90
18704;BMP180;9481;48.796;9.210;2022-07-09T10:47:20;97540.00;;;28.90
18704;BMP180;9481;48.796;9.210;2022-07-09T10:49:46;97543.00;;;29.00
18704;BMP180;9481;48.796;9.210;2022-07-09T10:52:12;97542.00;;;29.20
18704;BMP180;9481;48.796;9.210;2022-07-09T10:54:48;97541.00;;;29.30
18704;BMP180;9481;48.796;9.210;2022-07-09T10:57:14;97542.00;;;29.40
18704;BMP180;9481;48.796;9.210;2022-07-09T10:59:46;97534.00;;;29.40
18704;BMP180;9481;48.796;9.210;2022-07-09T11:02:22;97543.00;;;29.40
18704;BMP180;9481;48.796;9.210;2022-07-09T11:04:51;97540.00;;;29.30
18704;BMP180;9481;48.796;9.210;2022-07-09T11:07:23;97541.00;;;29.30
18704;BMP180;9481;48.796;9.210;2022-07-09T11:09:50;97540.00;;;29.20
18704;BMP180;9481;48.796;9.210;2022-07-09T11:12:18;97541.00;;;29.20
18704;BMP180;9481;48.796;9.210;2022-07-09T11:14:45;97536.00;;;29.10
18704;BMP180;9481;48.796;9.210;2022-07-09T11:17:29;97533.00;;;29.00
18704;BMP180;9481;48.796;9.210;2022-07-09T11:19:56;97524.00;;;29.20
18704;BMP180;9481;48.796;9.210;2022-07-09T11:22:22;97531.00;;;29.30
18704;BMP180;9481;48.796;9.210;2022-07-09T11:24:48;97531.00;;;29.50
18704;BMP180;9481;48.796;9.210;2022-07-09T11:27:13;97526.00;;;29.60
18704;BMP180;9481;48.796;9.210;2022-07-09T11:29:46;97532.00;;;29.50
18704;BMP180;9481;48.796;9.210;2022-07-09T11:32:16;97527.00;;;29.50
18704;BMP180;9481;48.796;9.210;2022-07-09T11:34:50;97531.00;;;29.40
18704;BMP180;9481;48.796;9.210;2022-07-09T11:37:23;97523.00;;;29.30
18704;BMP180;9481;48.796;9.210;2022-07-09T11:39:52;97522.00;;;29.20
18704;BMP180;9481;48.796;9.210;2022-07-09T11:42:19;97526.00;;;29.10
18704;BMP180;9481;48.796;9.210;2022-07-09T11:44:59;97515.00;;;29.00
18704;BMP180;9481;48.796;9.210;2022-07-09T11:47:36;97522.00;;;28.90
18704;BMP180;9481;48.796;9.210;2022-07-09T11:50:25;97513.00;;;28.80
18704;BMP180;9481;48.796;9.210;2022-07-09T11:52:51;97510.00;;;28.80
18704;BMP180;9481;48.796;9.210;2022-07-09T11:55:20;97516.00;;;28.70
18704;BMP180;9481;48.796;9.210;2022-07-09T12:00:26;97512.00;;;28.70
18704;BMP180;9481;48.796;9.210;2022-07-09T12:02:56;97510.00;;;28.70
18704;BMP180;9481;48.796;9.210;2022-07-09T12:05:34;97501.00;;;28.70
18704;BMP180;9481;48.796;9.210;2022-07-09T12:08:06;97504.00;;;28.80
18704;BMP180;9481;48.796;9.210;2022-07-09T12:10:38;97493.00;;;28.90
18704;BMP180;9481;48.796;9.210;2022-07-09T12:13:05;97490.00;;;29.00
18704;BMP180;9481;48.796;9.210;2022-07-09T12:15:32;97492.00;;;29.20
18704;BMP180;9481;48.796;9.210;2022-07-09T12:18:00;97493.00;;;29.30
18704;BMP180;9481;48.796;9.210;2022-07-09T12:20:29;97486.00;;;29.40
18704;BMP180;9481;48.796;9.210;2022-07-09T12:22:56;97481.00;;;29.60
18704;BMP180;9481;48.796;9.210;2022-07-09T12:25:22;97482.00;;;29.70
18704;BMP180;9481;48.796;9.210;2022-07-09T12:27:48;97479.00;;;29.80
18704;BMP180;9481;48.796;9.210;2022-07-09T12:30:17;97475.00;;;29.90
18704;BMP180;9481;48.796;9.210;2022-07-09T12:32:43;97471.00;;;29.90
18704;BMP180;9481;48.796;9.210;2022-07-09T12:35:10;97467.00;;;30.00
18704;BMP180;9481;48.796;9.210;2022-07-09T12:37:37;97464.00;;;30.00
18704;BMP180;9481;48.796;9.210;2022-07-09T12:40:05;97460.00;;;30.10
18704;BMP180;9481;48.796;9.210;2022-07-09T12:42:31;97456.00;;;30.10
18704;BMP180;9481;48.796;9.210;2022-07-09T12:44:56;97457.00;;;30.20
18704;BMP180;9481;48.796;9.210;2022-07-09T12:47:22;97452.00;;;30.40
18704;BMP180;9481;48.796;9.210;2022-07-09T12:49:48;97450.00;;;30.40
18704;BMP180;9481;48.796;9.210;2022-07-09T12:52:14;97453.00;;;30.40
18704;BMP180;9481;48.796;9.210;2022-07-09T12:54:39;97456.00;;;30.50
18704;BMP180;9481;48.796;9.210;2022-07-09T12:57:05;97452.00;;;30.60
18704;BMP180;9481;48.796;9.210;2022-07-09T12:59:31;97444.00;;;30.70
18704;BMP180;9481;48.796;9.210;2022-07-09T13:01:57;97444.00;;;30.70
18704;BMP180;9481;48.796;9.210;2022-07-09T13:04:23;97441.00;;;30.60
18704;BMP180;9481;48.796;9.210;2022-07-09T13:06:49;97444.00;;;30.60
18704;BMP180;9481;48.796;9.210;2022-07-09T13:09:14;97439.00;;;30.60
18704;BMP180;9481;48.796;9.210;2022-07-09T13:11:40;97434.00;;;30.60
18704;BMP180;9481;48.796;9.210;2022-07-09T13:14:07;97440.00;;;30.60
18704;BMP180;9481;48.796;9.210;2022-07-09T13:16:35;97442.00;;;30.50
18704;BMP180;9481;48.796;9.210;2022-07-09T13:19:02;97422.00;;;30.50
18704;BMP180;9481;48.796;9.210;2022-07-09T13:21:28;97425.00;;;30.40
18704;BMP180;9481;48.796;9.210;2022-07-09T13:23:55;97425.00;;;30.40
18704;BMP180;9481;48.796;9.210;2022-07-09T13:26:21;97421.00;;;30.50
18704;BMP180;9481;48.796;9.210;2022-07-09T13:28:47;97431.00;;;30.50
18704;BMP180;9481;48.796;9.210;2022-07-09T13:31:13;97416.00;;;30.60
18704;BMP180;9481;48.796;9.210;2022-07-09T13:33:39;97417.00;;;30.60
18704;BMP180;9481;48.796;9.210;2022-07-09T13:36:05;97414.00;;;30.70
18704;BMP180;9481;48.796;9.210;2022-07-09T13:38:33;97413.00;;;30.60
18704;BMP180;9481;48.796;9.210;2022-07-09T13:40:59;97410.00;;;30.60
18704;BMP180;9481;48.796;9.210;2022-07-09T13:43:25;97414.00;;;30.50
18704;BMP180;9481;48.796;9.210;2022-07-09T13:45:54;97413.00;;;30.40
18704;BMP180;9481;48.796;9.210;2022-07-09T13:48:20;97417.00;;;30.30
18704;BMP180;9481;48.796;9.210;2022-07-09T13:50:46;97404.00;;;30.20
18704;BMP180;9481;48.796;9.210;2022-07-09T13:53:12;97411.00;;;30.10
18704;BMP180;9481;48.796;9.210;2022-07-09T13:55:38;97399.00;;;30.00
18704;BMP180;9481;48.796;9.210;2022-07-09T13:58:03;97393.00;;;30.00
18704;BMP180;9481;48.796;9.210;2022-07-09T14:00:29;97394.00;;;29.90
18704;BMP180;9481;48.796;9.210;2022-07-09T14:02:55;97394.00;;;29.80
18704;BMP180;9481;48.796;9.210;2022-07-09T14:05:20;97397.00;;;29.70
18704;BMP180;9481;48.796;9.210;2022-07-09T14:07:46;97381.00;;;29.60
18704;BMP180;9481;48.796;9.210;2022-07-09T14:10:12;97386.00;;;29.60
18704;BMP180;9481;48.796;9.210;2022-07-09T14:12:38;97377.00;;;29.50
18704;BMP180;9481;48.796;9.210;2022-07-09T14:15:04;97383.00;;;29.50
18704;BMP180;9481;48.796;9.210;2022-07-09T14:17:30;97375.00;;;29.40
18704;BMP180;9481;48.796;9.210;2022-07-09T14:19:56;97367.00;;;29.40
18704;BMP180;9481;48.796;9.210;2022-07-09T14:22:24;97370.00;;;29.40
18704;BMP180;9481;48.796;9.210;2022-07-09T14:24:50;97371.00;;;29.40
18704;BMP180;9481;48.796;9.210;2022-07-09T14:27:16;97367.00;;;29.50